sensor_id;sensor_type;location;lat;lon;timestamp;P1;durP1;ratioP1;P2;durP2;ratioP2
22983;SDS011;11658;48.908;9.140;2022-08-23T03:00:49;5.60;;;2.33;;
22983;SDS011;11658;48.908;9.140;2022-08-23T03:03:15;3.63;;;2.53;;
22983;SDS011;11658;48.908;9.140;2022-08-23T03:05:42;2.50;;;2.23;;
22983;SDS011;11658;48.908;9.140;2022-08-23T03:08:08;3.23;;;2.33;;
22983;SDS011;11658;48.908;9.140;2022-08-23T03:10:35;4.17;;;2.40;;
22983;SDS011;11658;48.908;9.140;2022-08-23T03:13:02;3.40;;;2.40;;
22983;SDS011;11658;48.908;9.140;2022-08-23T03:15:28;2.80;;;2.30;;
22983;SDS011;11658;48.908;9.140;2022-08-23T03:17:53;4.73;;;2.50;;
22983;SDS011;11658;48.908;9.140;2022-08-23T03:20:19;3.50;;;2.40;;
22983;SDS011;11658;48.908;9.140;2022-08-23T03:22:45;3.53;;;2.37;;
22983;SDS011;11658;48.908;9.140;2022-08-23T03:25:10;3.60;;;2.73;;
22983;SDS011;11658;48.908;9.140;2022-08-23T03:27:36;3.50;;;2.10;;
22983;SDS011;11658;48.908;9.140;2022-08-23T03:30:03;3.50;;;2.70;;
22983;SDS011;11658;48.908;9.140;2022-08-23T03:32:29;5.63;;;2.57;;
22983;SDS011;11658;48.908;9.140;2022-08-23T03:34:55;2.67;;;2.47;;
22983;SDS011;11658;48.908;9.140;2022-08-23T03:37:20;3.33;;;2.33;;
22983;SDS011;11658;48.908;9.140;2022-08-23T03:39:46;5.87;;;2.60;;
22983;SDS011;11658;48.908;9.140;2022-08-23T03:42:12;3.90;;;2.30;;
22983;SDS011;11658;48.908;9.140;2022-08-23T03:44:37;3.87;;;2.40;;
22983;SDS011;11658;48.908;9.140;2022-08-23T03:47:04;5.90;;;2.53;;
22983;SDS011;11658;48.908;9.140;2022-08-23T03:49:32;3.30;;;2.37;;
22983;SDS011;11658;48.908;9.140;2022-08-23T03:51:58;3.17;;;2.23;;
22983;SDS011;11658;48.908;9.140;2022-08-23T03:54:24;3.97;;;2.60;;
22983;SDS011;11658;48.908;9.140;2022-08-23T03:59:20;5.03;;;2.40;;
22983;SDS011;11658;48.908;9.140;2022-08-23T04:01:46;3.53;;;2.50;;
22983;SDS011;11658;48.908;9.140;2022-08-23T04:04:12;5.10;;;3.07;;
22983;SDS011;11658;48.908;9.140;2022-08-23T04:06:38;4.77;;;2.57;;
22983;SDS011;11658;48.908;9.140;2022-08-23T04:09:04;4.77;;;2.90;;
22983;SDS011;11658;48.908;9.140;2022-08-23T04:11:30;4.47;;;2.87;;
22983;SDS011;11658;48.908;9.140;2022-08-23T04:13:56;5.53;;;3.00;;
22983;SDS011;11658;48.908;9.140;2022-08-23T04:16:22;3.53;;;2.93;;
22983;SDS011;11658;48.908;9.140;2022-08-23T04:18:48;4.23;;;2.80;;
22983;SDS011;11658;48.908;9.140;2022-08-23T04:21:15;4.03;;;3.00;;
22983;SDS011;11658;48.908;9.140;2022-08-23T04:23:43;5.40;;;2.97;;
22983;SDS011;11658;48.908;9.140;2022-08-23T04:26:09;3.77;;;3.20;;
22983;SDS011;11658;48.908;9.140;2022-08-23T04:28:35;5.37;;;3.00;;
22983;SDS011;11658;48.908;9.140;2022-08-23T04:31:01;5.57;;;3.37;;
22983;SDS011;11658;48.908;9.140;2022-08-23T04:33:29;5.27;;;3.30;;
22983;SDS011;11658;48.908;9.140;2022-08-23T04:35:59;5.87;;;2.97;;
22983;SDS011;11658;48.908;9.140;2022-08-23T04:38:25;3.60;;;3.10;;
22983;SDS011;11658;48.908;9.140;2022-08-23T04:40:52;3.87;;;2.90;;
22983;SDS011;11658;48.908;9.140;2022-08-23T04:43:42;6.57;;;3.30;;
22983;SDS011;11658;48.908;9.140;2022-08-23T04:46:08;6.73;;;2.90;;
22983;SDS011;11658;48.908;9.140;2022-08-23T04:48:34;4.37;;;2.93;;
22983;SDS011;11658;48.908;9.140;2022-08-23T04:51:00;3.70;;;2.97;;
22983;SDS011;11658;48.908;9.140;2022-08-23T04:53:26;6.40;;;3.10;;
22983;SDS011;11658;48.908;9.140;2022-08-23T04:55:54;5.17;;;2.77;;
22983;SDS011;11658;48.908;9.140;2022-08-23T04:58:20;5.90;;;2.90;;
22983;SDS011;11658;48.908;9.140;2022-08-23T05:00:50;3.77;;;2.67;;
22983;SDS011;11658;48.908;9.140;2022-08-23T05:03:16;4.20;;;2.80;;
22983;SDS011;11658;48.908;9.140;2022-08-23T05:05:42;3.90;;;2.40;;
22983;SDS011;11658;48.908;9.140;2022-08-23T05:08:08;2.93;;;2.50;;
22983;SDS011;11658;48.908;9.140;2022-08-23T05:10:34;2.87;;;2.60;;
22983;SDS011;11658;48.908;9.140;2022-08-23T05:12:59;4.57;;;2.90;;
22983;SDS011;11658;48.908;9.140;2022-08-23T05:15:25;5.50;;;2.53;;
22983;SDS011;11658;48.908;9.140;2022-08-23T05:17:51;3.30;;;2.60;;
22983;SDS011;11658;48.908;9.140;2022-08-23T05:20:17;6.13;;;3.00;;
22983;SDS011;11658;48.908;9.140;2022-08-23T05:22:43;5.73;;;2.60;;
22983;SDS011;11658;48.908;9.140;2022-08-23T05:25:09;4.00;;;3.03;;
22983;SDS011;11658;48.908;9.140;2022-08-23T05:27:35;5.07;;;2.73;;
22983;SDS011;11658;48.908;9.140;2022-08-23T05:30:01;4.37;;;2.80;;
22983;SDS011;11658;48.908;9.140;2022-08-23T05:32:27;4.27;;;2.30;;
22983;SDS011;11658;48.908;9.140;2022-08-23T05:34:52;3.40;;;2.70;;
22983;SDS011;11658;48.908;9.140;2022-08-23T05:37:18;6.10;;;2.60;;
22983;SDS011;11658;48.908;9.140;2022-08-23T05:39:44;4.67;;;2.80;;
22983;SDS011;11658;48.908;9.140;2022-08-23T05:42:11;5.00;;;2.80;;
22983;SDS011;11658;48.908;9.140;2022-08-23T05:44:38;4.43;;;2.73;;
22983;SDS011;11658;48.908;9.140;2022-08-23T05:47:04;3.60;;;2.53;;
22983;SDS011;11658;48.908;9.140;2022-08-23T05:49:33;5.50;;;2.83;;
22983;SDS011;11658;48.908;9.140;2022-08-23T05:52:01;3.80;;;2.47;;
22983;SDS011;11658;48.908;9.140;2022-08-23T05:54:28;3.53;;;2.43;;
22983;SDS011;11658;48.908;9.140;2022-08-23T05:56:54;4.00;;;2.80;;
22983;SDS011;11658;48.908;9.140;2022-08-23T05:59:20;3.93;;;2.60;;
22983;SDS011;11658;48.908;9.140;2022-08-23T06:01:46;5.53;;;2.83;;
22983;SDS011;11658;48.908;9.140;2022-08-23T06:04:12;5.13;;;2.60;;
22983;SDS011;11658;48.908;9.140;2022-08-23T06:06:38;7.57;;;2.90;;
22983;SDS011;11658;48.908;9.140;2022-08-23T06:09:06;4.23;;;3.10;;
22983;SDS011;11658;48.908;9.140;2022-08-23T06:11:33;4.33;;;3.13;;
22983;SDS011;11658;48.908;9.140;2022-08-23T06:14:01;4.43;;;2.80;;
22983;SDS011;11658;48.908;9.140;2022-08-23T06:16:30;4.90;;;2.57;;
22983;SDS011;11658;48.908;9.140;2022-08-23T06:18:57;5.87;;;2.93;;
22983;SDS011;11658;48.908;9.140;2022-08-23T06:21:26;3.80;;;2.77;;
22983;SDS011;11658;48.908;9.140;2022-08-23T06:23:52;5.50;;;3.00;;
22983;SDS011;11658;48.908;9.140;2022-08-23T06:28:50;4.50;;;2.87;;
22983;SDS011;11658;48.908;9.140;2022-08-23T06:31:18;3.73;;;2.70;;
22983;SDS011;11658;48.908;9.140;2022-08-23T06:34:05;3.87;;;2.67;;
22983;SDS011;11658;48.908;9.140;2022-08-23T06:36:31;3.33;;;2.50;;
22983;SDS011;11658;48.908;9.140;2022-08-23T06:38:57;2.83;;;2.53;;
22983;SDS011;11658;48.908;9.140;2022-08-23T06:41:23;4.67;;;2.97;;
22983;SDS011;11658;48.908;9.140;2022-08-23T06:43:49;4.77;;;2.87;;
22983;SDS011;11658;48.908;9.140;2022-08-23T06:46:17;3.00;;;2.63;;
22983;SDS011;11658;48.908;9.140;2022-08-23T06:48:47;5.37;;;2.50;;
22983;SDS011;11658;48.908;9.140;2022-08-23T06:51:34;4.47;;;3.00;;
22983;SDS011;11658;48.908;9.140;2022-08-23T06:54:07;5.10;;;2.90;;
22983;SDS011;11658;48.908;9.140;2022-08-23T06:56:34;4.10;;;3.00;;
22983;SDS011;11658;48.908;9.140;2022-08-23T06:59:01;3.20;;;2.57;;
22983;SDS011;11658;48.908;9.140;2022-08-23T07:01:35;7.47;;;3.10;;
22983;SDS011;11658;48.908;9.140;2022-08-23T07:04:02;4.13;;;2.60;;
22983;SDS011;11658;48.908;9.140;2022-08-23T07:06:30;4.77;;;2.90;;
22983;SDS011;11658;48.908;9.140;2022-08-23T07:08:56;4.53;;;2.40;;
22983;SDS011;11658;48.908;9.140;2022-08-23T07:11:23;9.17;;;3.07;;
22983;SDS011;11658;48.908;9.140;2022-08-23T07:13:49;7.07;;;3.10;;
22983;SDS011;11658;48.908;9.140;2022-08-23T07:16:17;5.30;;;3.07;;
22983;SDS011;11658;48.908;9.140;2022-08-23T07:18:44;3.70;;;2.90;;
22983;SDS011;11658;48.908;9.140;2022-08-23T07:21:10;5.93;;;2.80;;
22983;SDS011;11658;48.908;9.140;2022-08-23T07:23:37;4.23;;;2.40;;
22983;SDS011;11658;48.908;9.140;2022-08-23T07:26:08;5.40;;;2.70;;
22983;SDS011;11658;48.908;9.140;2022-08-23T07:28:35;4.97;;;2.67;;
22983;SDS011;11658;48.908;9.140;2022-08-23T07:31:08;3.17;;;2.63;;
22983;SDS011;11658;48.908;9.140;2022-08-23T07:33:45;5.43;;;2.33;;
22983;SDS011;11658;48.908;9.140;2022-08-23T07:36:16;3.67;;;2.23;;
22983;SDS011;11658;48.908;9.140;2022-08-23T07:38:44;6.40;;;2.60;;
22983;SDS011;11658;48.908;9.140;2022-08-23T07:41:10;3.17;;;2.23;;
22983;SDS011;11658;48.908;9.140;2022-08-23T07:43:37;3.30;;;2.05;;
22983;SDS011;11658;48.908;9.140;2022-08-23T07:46:04;5.07;;;2.70;;
22983;SDS011;11658;48.908;9.140;2022-08-23T07:48:30;6.35;;;2.90;;
22983;SDS011;11658;48.908;9.140;2022-08-23T07:50:58;3.13;;;2.20;;
22983;SDS011;11658;48.908;9.140;2022-08-23T07:53:25;5.53;;;2.80;;
22983;SDS011;11658;48.908;9.140;2022-08-23T07:55:52;3.47;;;2.47;;
22983;SDS011;11658;48.908;9.140;2022-08-23T07:58:19;4.97;;;2.60;;
22983;SDS011;11658;48.908;9.140;2022-08-23T08:00:45;3.27;;;2.23;;
22983;SDS011;11658;48.908;9.140;2022-08-23T08:03:12;3.53;;;2.40;;
22983;SDS011;11658;48.908;9.140;2022-08-23T08:05:38;3.28;;;2.38;;
22983;SDS011;11658;48.908;9.140;2022-08-23T08:08:05;4.55;;;2.42;;
22983;SDS011;11658;48.908;9.140;2022-08-23T08:10:32;3.70;;;2.65;;
22983;SDS011;11658;48.908;9.140;2022-08-23T08:13:00;3.80;;;2.20;;
22983;SDS011;11658;48.908;9.140;2022-08-23T08:15:26;4.38;;;2.30;;
22983;SDS011;11658;48.908;9.140;2022-08-23T08:17:52;4.68;;;2.25;;
22983;SDS011;11658;48.908;9.140;2022-08-23T08:20:18;3.92;;;2.50;;
22983;SDS011;11658;48.908;9.140;2022-08-23T08:22:45;5.35;;;2.40;;
22983;SDS011;11658;48.908;9.140;2022-08-23T08:25:11;5.05;;;2.40;;
22983;SDS011;11658;48.908;9.140;2022-08-23T08:27:38;3.88;;;2.40;;
22983;SDS011;11658;48.908;9.140;2022-08-23T08:30:05;4.65;;;2.40;;
22983;SDS011;11658;48.908;9.140;2022-08-23T08:32:32;5.68;;;2.42;;
22983;SDS011;11658;48.908;9.140;2022-08-23T08:34:58;3.42;;;2.38;;
22983;SDS011;11658;48.908;9.140;2022-08-23T08:37:24;4.22;;;2.33;;
22983;SDS011;11658;48.908;9.140;2022-08-23T08:39:50;4.43;;;2.38;;
22983;SDS011;11658;48.908;9.140;2022-08-23T08:44:48;3.30;;;2.17;;
22983;SDS011;11658;48.908;9.140;2022-08-23T08:52:34;3.83;;;2.40;;
22983;SDS011;11658;48.908;9.140;2022-08-23T08:55:16;3.78;;;2.30;;
22983;SDS011;11658;48.908;9.140;2022-08-23T08:57:46;3.72;;;2.05;;
22983;SDS011;11658;48.908;9.140;2022-08-23T09:00:18;3.75;;;2.00;;
22983;SDS011;11658;48.908;9.140;2022-08-23T09:02:49;3.08;;;2.00;;
22983;SDS011;11658;48.908;9.140;2022-08-23T09:05:17;4.10;;;2.38;;
22983;SDS011;11658;48.908;9.140;2022-08-23T09:07:49;2.85;;;1.90;;
22983;SDS011;11658;48.908;9.140;2022-08-23T09:15:57;3.70;;;2.20;;
22983;SDS011;11658;48.908;9.140;2022-08-23T09:18:33;3.63;;;2.08;;
22983;SDS011;11658;48.908;9.140;2022-08-23T09:21:00;4.63;;;2.10;;
22983;SDS011;11658;48.908;9.140;2022-08-23T09:23:32;5.80;;;2.13;;
22983;SDS011;11658;48.908;9.140;2022-08-23T09:26:04;3.97;;;1.90;;
22983;SDS011;11658;48.908;9.140;2022-08-23T09:28:51;2.65;;;1.85;;
22983;SDS011;11658;48.908;9.140;2022-08-23T09:31:37;3.17;;;1.90;;
22983;SDS011;11658;48.908;9.140;2022-08-23T09:34:06;5.88;;;2.00;;
22983;SDS011;11658;48.908;9.140;2022-08-23T09:36:33;4.95;;;1.52;;
22983;SDS011;11658;48.908;9.140;2022-08-23T09:39:03;3.78;;;1.77;;
22983;SDS011;11658;48.908;9.140;2022-08-23T09:41:48;4.03;;;1.80;;
22983;SDS011;11658;48.908;9.140;2022-08-23T09:44:15;2.97;;;1.70;;
22983;SDS011;11658;48.908;9.140;2022-08-23T09:47:15;4.85;;;1.90;;
22983;SDS011;11658;48.908;9.140;2022-08-23T09:49:42;1.73;;;1.60;;
22983;SDS011;11658;48.908;9.140;2022-08-23T09:52:16;2.15;;;1.42;;
22983;SDS011;11658;48.908;9.140;2022-08-23T09:54:59;2.13;;;1.60;;
22983;SDS011;11658;48.908;9.140;2022-08-23T09:57:28;2.35;;;1.55;;
22983;SDS011;11658;48.908;9.140;2022-08-23T10:00:02;2.72;;;1.63;;
22983;SDS011;11658;48.908;9.140;2022-08-23T10:02:41;4.07;;;1.77;;
22983;SDS011;11658;48.908;9.140;2022-08-23T10:07:40;4.00;;;1.65;;
22983;SDS011;11658;48.908;9.140;2022-08-23T10:12:59;2.85;;;1.80;;
22983;SDS011;11658;48.908;9.140;2022-08-23T10:15:51;2.47;;;1.60;;
22983;SDS011;11658;48.908;9.140;2022-08-23T10:18:33;3.63;;;1.65;;
22983;SDS011;11658;48.908;9.140;2022-08-23T10:21:32;2.22;;;1.60;;
22983;SDS011;11658;48.908;9.140;2022-08-23T10:26:31;3.53;;;1.55;;
22983;SDS011;11658;48.908;9.140;2022-08-23T10:29:14;2.75;;;1.52;;
22983;SDS011;11658;48.908;9.140;2022-08-23T10:38:17;3.28;;;1.77;;
22983;SDS011;11658;48.908;9.140;2022-08-23T10:40:59;2.70;;;1.50;;
22983;SDS011;11658;48.908;9.140;2022-08-23T10:46:15;2.55;;;1.40;;
22983;SDS011;11658;48.908;9.140;2022-08-23T10:48:47;4.10;;;1.80;;
22983;SDS011;11658;48.908;9.140;2022-08-23T10:51:26;2.05;;;1.40;;
22983;SDS011;11658;48.908;9.140;2022-08-23T10:53:59;3.38;;;1.80;;
22983;SDS011;11658;48.908;9.140;2022-08-23T10:56:33;2.35;;;1.95;;
22983;SDS011;11658;48.908;9.140;2022-08-23T10:59:06;1.63;;;1.40;;
22983;SDS011;11658;48.908;9.140;2022-08-23T11:07:24;3.13;;;1.77;;
22983;SDS011;11658;48.908;9.140;2022-08-23T11:10:07;2.35;;;1.80;;
22983;SDS011;11658;48.908;9.140;2022-08-23T11:15:29;3.75;;;1.88;;
22983;SDS011;11658;48.908;9.140;2022-08-23T11:17:58;2.88;;;1.50;;
22983;SDS011;11658;48.908;9.140;2022-08-23T11:23:14;2.72;;;1.50;;
22983;SDS011;11658;48.908;9.140;2022-08-23T11:25:43;3.55;;;1.60;;
22983;SDS011;11658;48.908;9.140;2022-08-23T11:30:48;2.20;;;1.65;;
22983;SDS011;11658;48.908;9.140;2022-08-23T11:39:00;2.70;;;1.40;;
22983;SDS011;11658;48.908;9.140;2022-08-23T11:43:43;2.67;;;1.52;;
22983;SDS011;11658;48.908;9.140;2022-08-23T11:46:12;3.85;;;1.58;;
22983;SDS011;11658;48.908;9.140;2022-08-23T11:55:15;2.35;;;1.65;;
22983;SDS011;11658;48.908;9.140;2022-08-23T12:02:39;4.10;;;1.77;;
22983;SDS011;11658;48.908;9.140;2022-08-23T12:07:52;3.38;;;1.73;;
22983;SDS011;11658;48.908;9.140;2022-08-23T12:18:42;3.22;;;1.60;;
22983;SDS011;11658;48.908;9.140;2022-08-23T12:40:48;1.92;;;1.40;;
22983;SDS011;11658;48.908;9.140;2022-08-23T12:43:17;1.30;;;1.20;;
22983;SDS011;11658;48.908;9.140;2022-08-23T12:45:47;2.97;;;1.70;;
22983;SDS011;11658;48.908;9.140;2022-08-23T12:48:17;4.82;;;1.50;;
22983;SDS011;11658;48.908;9.140;2022-08-23T12:50:51;3.22;;;1.50;;
22983;SDS011;11658;48.908;9.140;2022-08-23T12:53:32;5.32;;;1.70;;
22983;SDS011;11658;48.908;9.140;2022-08-23T12:56:06;3.05;;;1.30;;
22983;SDS011;11658;48.908;9.140;2022-08-23T12:58:43;3.08;;;1.70;;
22983;SDS011;11658;48.908;9.140;2022-08-23T13:01:25;1.95;;;1.38;;
22983;SDS011;11658;48.908;9.140;2022-08-23T13:03:57;2.83;;;1.45;;
22983;SDS011;11658;48.908;9.140;2022-08-23T13:06:33;2.05;;;1.48;;
22983;SDS011;11658;48.908;9.140;2022-08-23T13:09:06;2.10;;;1.60;;
22983;SDS011;11658;48.908;9.140;2022-08-23T13:11:53;3.03;;;1.55;;
22983;SDS011;11658;48.908;9.140;2022-08-23T13:19:47;2.25;;;1.48;;
22983;SDS011;11658;48.908;9.140;2022-08-23T13:25:07;2.28;;;1.60;;
22983;SDS011;11658;48.908;9.140;2022-08-23T13:35:25;2.15;;;1.38;;
22983;SDS011;11658;48.908;9.140;2022-08-23T13:37:58;1.65;;;1.38;;
22983;SDS011;11658;48.908;9.140;2022-08-23T13:40:31;2.45;;;1.45;;
22983;SDS011;11658;48.908;9.140;2022-08-23T13:43:08;2.78;;;1.50;;
22983;SDS011;11658;48.908;9.140;2022-08-23T13:45:43;5.00;;;1.70;;
22983;SDS011;11658;48.908;9.140;2022-08-23T13:48:13;5.38;;;1.42;;
22983;SDS011;11658;48.908;9.140;2022-08-23T13:50:45;3.10;;;1.55;;
22983;SDS011;11658;48.908;9.140;2022-08-23T13:53:12;2.35;;;1.35;;
22983;SDS011;11658;48.908;9.140;2022-08-23T13:55:40;5.10;;;1.75;;
22983;SDS011;11658;48.908;9.140;2022-08-23T13:58:16;2.88;;;1.45;;
22983;SDS011;11658;48.908;9.140;2022-08-23T14:00:49;1.42;;;1.33;;
22983;SDS011;11658;48.908;9.140;2022-08-23T14:03:15;3.30;;;1.60;;
22983;SDS011;11658;48.908;9.140;2022-08-23T14:05:41;3.20;;;1.55;;
22983;SDS011;11658;48.908;9.140;2022-08-23T14:08:06;1.98;;;1.40;;
22983;SDS011;11658;48.908;9.140;2022-08-23T14:10:33;5.55;;;1.90;;
22983;SDS011;11658;48.908;9.140;2022-08-23T14:12:59;2.95;;;1.65;;
22983;SDS011;11658;48.908;9.140;2022-08-23T14:15:26;2.90;;;1.52;;
22983;SDS011;11658;48.908;9.140;2022-08-23T14:17:52;2.60;;;1.45;;
22983;SDS011;11658;48.908;9.140;2022-08-23T14:20:19;4.03;;;1.50;;
22983;SDS011;11658;48.908;9.140;2022-08-23T14:22:46;1.80;;;1.40;;
22983;SDS011;11658;48.908;9.140;2022-08-23T14:25:12;2.35;;;1.60;;
22983;SDS011;11658;48.908;9.140;2022-08-23T14:27:38;3.75;;;1.85;;
22983;SDS011;11658;48.908;9.140;2022-08-23T14:30:07;3.90;;;1.80;;
22983;SDS011;11658;48.908;9.140;2022-08-23T14:32:35;3.25;;;1.75;;
22983;SDS011;11658;48.908;9.140;2022-08-23T14:35:03;3.88;;;1.63;;
22983;SDS011;11658;48.908;9.140;2022-08-23T14:37:30;2.92;;;1.60;;
22983;SDS011;11658;48.908;9.140;2022-08-23T14:39:55;2.20;;;1.50;;
22983;SDS011;11658;48.908;9.140;2022-08-23T14:42:24;2.70;;;1.63;;
22983;SDS011;11658;48.908;9.140;2022-08-23T14:44:50;3.80;;;1.60;;
22983;SDS011;11658;48.908;9.140;2022-08-23T14:47:15;2.47;;;1.50;;
22983;SDS011;11658;48.908;9.140;2022-08-23T14:49:42;2.20;;;1.50;;
22983;SDS011;11658;48.908;9.140;2022-08-23T14:52:07;1.65;;;1.23;;
22983;SDS011;11658;48.908;9.140;2022-08-23T14:54:33;2.17;;;1.73;;
22983;SDS011;11658;48.908;9.140;2022-08-23T14:56:59;4.43;;;1.70;;
22983;SDS011;11658;48.908;9.140;2022-08-23T14:59:25;3.05;;;1.83;;
22983;SDS011;11658;48.908;9.140;2022-08-23T15:01:51;2.42;;;1.50;;
22983;SDS011;11658;48.908;9.140;2022-08-23T15:04:20;3.08;;;1.80;;
22983;SDS011;11658;48.908;9.140;2022-08-23T15:06:47;2.38;;;1.50;;
22983;SDS011;11658;48.908;9.140;2022-08-23T15:09:13;3.70;;;1.80;;
22983;SDS011;11658;48.908;9.140;2022-08-23T15:11:39;3.30;;;1.60;;
22983;SDS011;11658;48.908;9.140;2022-08-23T15:14:05;2.90;;;1.67;;
22983;SDS011;11658;48.908;9.140;2022-08-23T15:16:31;2.70;;;1.50;;
22983;SDS011;11658;48.908;9.140;2022-08-23T15:18:57;3.95;;;1.45;;
22983;SDS011;11658;48.908;9.140;2022-08-23T15:21:24;5.22;;;1.50;;
22983;SDS011;11658;48.908;9.140;2022-08-23T15:23:50;3.40;;;1.67;;
22983;SDS011;11658;48.908;9.140;2022-08-23T15:26:18;3.55;;;1.30;;
22983;SDS011;11658;48.908;9.140;2022-08-23T15:28:46;3.83;;;1.85;;
22983;SDS011;11658;48.908;9.140;2022-08-23T15:31:12;4.10;;;1.63;;
22983;SDS011;11658;48.908;9.140;2022-08-23T15:33:39;2.80;;;1.45;;
22983;SDS011;11658;48.908;9.140;2022-08-23T15:36:05;2.58;;;1.42;;
22983;SDS011;11658;48.908;9.140;2022-08-23T15:38:32;3.03;;;1.50;;
22983;SDS011;11658;48.908;9.140;2022-08-23T15:41:00;3.33;;;1.70;;
22983;SDS011;11658;48.908;9.140;2022-08-23T15:43:26;1.83;;;1.50;;
22983;SDS011;11658;48.908;9.140;2022-08-23T15:45:52;2.53;;;1.70;;
22983;SDS011;11658;48.908;9.140;2022-08-23T15:50:56;4.20;;;1.60;;
22983;SDS011;11658;48.908;9.140;2022-08-23T15:53:22;3.10;;;1.67;;
22983;SDS011;11658;48.908;9.140;2022-08-23T15:55:49;2.40;;;1.60;;
22983;SDS011;11658;48.908;9.140;2022-08-23T15:58:20;2.13;;;1.33;;
22983;SDS011;11658;48.908;9.140;2022-08-23T16:00:48;2.13;;;1.40;;
22983;SDS011;11658;48.908;9.140;2022-08-23T16:03:15;3.05;;;1.55;;
22983;SDS011;11658;48.908;9.140;2022-08-23T16:05:42;3.05;;;1.73;;
22983;SDS011;11658;48.908;9.140;2022-08-23T16:08:16;2.67;;;1.60;;
22983;SDS011;11658;48.908;9.140;2022-08-23T16:10:53;5.55;;;1.88;;
22983;SDS011;11658;48.908;9.140;2022-08-23T16:13:19;4.45;;;1.60;;
22983;SDS011;11658;48.908;9.140;2022-08-23T16:15:45;2.33;;;1.50;;
22983;SDS011;11658;48.908;9.140;2022-08-23T16:18:11;3.47;;;1.70;;
22983;SDS011;11658;48.908;9.140;2022-08-23T16:20:37;3.75;;;1.55;;
22983;SDS011;11658;48.908;9.140;2022-08-23T16:23:04;4.63;;;1.58;;
22983;SDS011;11658;48.908;9.140;2022-08-23T16:25:30;3.30;;;1.58;;
22983;SDS011;11658;48.908;9.140;2022-08-23T16:27:56;2.17;;;1.60;;
22983;SDS011;11658;48.908;9.140;2022-08-23T16:30:22;2.15;;;1.40;;
22983;SDS011;11658;48.908;9.140;2022-08-23T16:32:48;3.85;;;1.75;;
22983;SDS011;11658;48.908;9.140;2022-08-23T16:35:13;2.75;;;1.33;;
22983;SDS011;11658;48.908;9.140;2022-08-23T16:37:39;2.70;;;1.42;;
22983;SDS011;11658;48.908;9.140;2022-08-23T16:40:06;3.03;;;1.35;;
22983;SDS011;11658;48.908;9.140;2022-08-23T16:42:32;2.45;;;1.25;;
22983;SDS011;11658;48.908;9.140;2022-08-23T16:44:58;3.47;;;1.50;;
22983;SDS011;11658;48.908;9.140;2022-08-23T16:47:24;1.98;;;1.13;;
22983;SDS011;11658;48.908;9.140;2022-08-23T16:49:50;2.83;;;1.50;;
22983;SDS011;11658;48.908;9.140;2022-08-23T16:52:15;4.88;;;1.20;;
22983;SDS011;11658;48.908;9.140;2022-08-23T16:54:41;2.05;;;1.27;;
22983;SDS011;11658;48.908;9.140;2022-08-23T16:57:07;2.22;;;1.25;;
22983;SDS011;11658;48.908;9.140;2022-08-23T16:59:33;2.42;;;1.40;;
22983;SDS011;11658;48.908;9.140;2022-08-23T17:02:00;3.95;;;1.20;;
22983;SDS011;11658;48.908;9.140;2022-08-23T17:04:28;3.17;;;1.35;;
22983;SDS011;11658;48.908;9.140;2022-08-23T17:06:55;2.63;;;1.30;;
22983;SDS011;11658;48.908;9.140;2022-08-23T17:09:24;3.88;;;1.50;;
22983;SDS011;11658;48.908;9.140;2022-08-23T17:11:51;2.65;;;1.50;;
22983;SDS011;11658;48.908;9.140;2022-08-23T17:14:18;3.38;;;1.40;;
22983;SDS011;11658;48.908;9.140;2022-08-23T17:16:45;2.42;;;1.30;;
22983;SDS011;11658;48.908;9.140;2022-08-23T17:19:11;2.42;;;1.80;;
22983;SDS011;11658;48.908;9.140;2022-08-23T17:21:38;3.40;;;1.40;;
22983;SDS011;11658;48.908;9.140;2022-08-23T17:24:05;2.65;;;1.50;;
22983;SDS011;11658;48.908;9.140;2022-08-23T17:26:31;4.53;;;1.60;;
22983;SDS011;11658;48.908;9.140;2022-08-23T17:28:57;5.70;;;1.67;;
22983;SDS011;11658;48.908;9.140;2022-08-23T17:31:23;3.22;;;1.40;;
22983;SDS011;11658;48.908;9.140;2022-08-23T17:33:50;4.18;;;1.50;;
22983;SDS011;11658;48.908;9.140;2022-08-23T17:36:21;2.60;;;1.63;;
22983;SDS011;11658;48.908;9.140;2022-08-23T17:38:52;4.05;;;1.42;;
22983;SDS011;11658;48.908;9.140;2022-08-23T17:41:20;2.13;;;1.50;;
22983;SDS011;11658;48.908;9.140;2022-08-23T17:43:45;2.38;;;1.52;;
22983;SDS011;11658;48.908;9.140;2022-08-23T17:46:11;2.45;;;1.60;;
22983;SDS011;11658;48.908;9.140;2022-08-23T17:48:37;2.38;;;1.65;;
22983;SDS011;11658;48.908;9.140;2022-08-23T17:51:03;2.75;;;1.70;;
22983;SDS011;11658;48.908;9.140;2022-08-23T17:53:28;4.15;;;1.90;;
22983;SDS011;11658;48.908;9.140;2022-08-23T17:55:54;3.80;;;1.70;;
22983;SDS011;11658;48.908;9.140;2022-08-23T17:58:19;4.18;;;1.77;;
22983;SDS011;11658;48.908;9.140;2022-08-23T18:00:45;5.70;;;2.00;;
22983;SDS011;11658;48.908;9.140;2022-08-23T18:03:11;8.23;;;2.00;;
22983;SDS011;11658;48.908;9.140;2022-08-23T18:05:36;2.92;;;1.90;;
22983;SDS011;11658;48.908;9.140;2022-08-23T18:08:05;3.70;;;1.48;;
22983;SDS011;11658;48.908;9.140;2022-08-23T18:10:32;2.50;;;1.83;;
22983;SDS011;11658;48.908;9.140;2022-08-23T18:12:58;4.00;;;1.88;;
22983;SDS011;11658;48.908;9.140;2022-08-23T18:15:23;3.20;;;2.10;;
22983;SDS011;11658;48.908;9.140;2022-08-23T18:17:50;2.95;;;1.90;;
22983;SDS011;11658;48.908;9.140;2022-08-23T18:20:15;4.07;;;1.90;;
22983;SDS011;11658;48.908;9.140;2022-08-23T18:22:42;3.97;;;1.80;;
22983;SDS011;11658;48.908;9.140;2022-08-23T18:25:08;5.88;;;1.80;;
22983;SDS011;11658;48.908;9.140;2022-08-23T18:27:34;2.33;;;1.90;;
22983;SDS011;11658;48.908;9.140;2022-08-23T18:30:23;3.38;;;2.13;;
22983;SDS011;11658;48.908;9.140;2022-08-23T18:32:49;2.80;;;1.83;;
22983;SDS011;11658;48.908;9.140;2022-08-23T18:35:14;3.60;;;1.85;;
22983;SDS011;11658;48.908;9.140;2022-08-23T18:37:40;5.20;;;1.95;;
22983;SDS011;11658;48.908;9.140;2022-08-23T18:40:07;3.03;;;2.40;;
22983;SDS011;11658;48.908;9.140;2022-08-23T18:42:33;2.13;;;1.77;;
22983;SDS011;11658;48.908;9.140;2022-08-23T18:44:59;4.40;;;1.90;;
22983;SDS011;11658;48.908;9.140;2022-08-23T18:47:25;5.80;;;2.45;;
22983;SDS011;11658;48.908;9.140;2022-08-23T18:49:51;3.60;;;2.00;;
22983;SDS011;11658;48.908;9.140;2022-08-23T18:52:17;3.95;;;2.00;;
22983;SDS011;11658;48.908;9.140;2022-08-23T18:54:43;2.50;;;2.05;;
22983;SDS011;11658;48.908;9.140;2022-08-23T18:57:08;5.07;;;2.10;;
22983;SDS011;11658;48.908;9.140;2022-08-23T18:59:34;5.03;;;2.30;;
22983;SDS011;11658;48.908;9.140;2022-08-23T19:01:59;5.05;;;2.35;;
22983;SDS011;11658;48.908;9.140;2022-08-23T19:04:25;3.67;;;2.40;;
22983;SDS011;11658;48.908;9.140;2022-08-23T19:06:51;2.50;;;1.88;;
22983;SDS011;11658;48.908;9.140;2022-08-23T19:09:17;4.10;;;3.70;;
22983;SDS011;11658;48.908;9.140;2022-08-23T19:11:42;3.67;;;2.67;;
22983;SDS011;11658;48.908;9.140;2022-08-23T19:14:08;5.63;;;2.42;;
22983;SDS011;11658;48.908;9.140;2022-08-23T19:16:36;4.88;;;2.00;;
22983;SDS011;11658;48.908;9.140;2022-08-23T19:19:04;4.38;;;2.10;;
22983;SDS011;11658;48.908;9.140;2022-08-23T19:21:30;6.20;;;2.33;;
22983;SDS011;11658;48.908;9.140;2022-08-23T19:23:57;4.63;;;2.63;;
22983;SDS011;11658;48.908;9.140;2022-08-23T19:26:25;4.13;;;2.17;;
22983;SDS011;11658;48.908;9.140;2022-08-23T19:28:59;6.05;;;2.35;;
22983;SDS011;11658;48.908;9.140;2022-08-23T19:31:26;3.92;;;2.58;;
22983;SDS011;11658;48.908;9.140;2022-08-23T19:33:53;3.95;;;2.35;;
22983;SDS011;11658;48.908;9.140;2022-08-23T19:36:19;4.88;;;2.20;;
22983;SDS011;11658;48.908;9.140;2022-08-23T19:38:45;2.95;;;2.10;;
22983;SDS011;11658;48.908;9.140;2022-08-23T19:41:10;3.88;;;2.40;;
22983;SDS011;11658;48.908;9.140;2022-08-23T19:43:39;3.72;;;2.30;;
22983;SDS011;11658;48.908;9.140;2022-08-23T19:46:05;2.72;;;2.20;;
22983;SDS011;11658;48.908;9.140;2022-08-23T19:48:38;3.53;;;2.05;;
22983;SDS011;11658;48.908;9.140;2022-08-23T19:51:06;3.83;;;2.20;;
22983;SDS011;11658;48.908;9.140;2022-08-23T19:53:34;4.03;;;2.10;;